createdAt,value
2023-02-19T00:00:40.013Z,98.50
2023-02-19T00:01:39.968Z,98.60
2023-02-19T00:02:39.809Z,98.60
2023-02-19T00:03:40.010Z,98.70
2023-02-19T00:04:40.097Z,98.70
2023-02-19T00:05:39.932Z,98.80
2023-02-19T00:06:39.948Z,98.80
2023-02-19T00:07:39.969Z,98.91
2023-02-19T00:08:39.747Z,98.91
2023-02-19T00:09:39.958Z,99.11
2023-02-19T00:10:39.847Z,99.21
2023-02-19T00:11:39.865Z,99.32
2023-02-19T00:12:39.839Z,99.32
2023-02-19T00:13:39.826Z,99.32
2023-02-19T00:14:39.945Z,99.42
2023-02-19T00:15:39.855Z,99.42
2023-02-19T00:16:39.841Z,99.32
2023-02-19T00:17:39.775Z,99.32
2023-02-19T00:18:39.712Z,99.32
2023-02-19T00:19:39.780Z,99.21
2023-02-19T00:20:39.735Z,99.11
2023-02-19T00:21:39.741Z,99.11
2023-02-19T00:22:39.732Z,99.11
2023-02-19T00:23:39.715Z,99.11
2023-02-19T00:24:39.579Z,99.01
2023-02-19T00:25:39.722Z,99.01
2023-02-19T00:26:39.731Z,98.80
2023-02-19T00:27:39.723Z,98.91
2023-02-19T00:28:39.695Z,98.91
2023-02-19T00:29:39.766Z,99.01
2023-02-19T00:30:39.701Z,99.01
2023-02-19T00:31:39.713Z,99.21
2023-02-19T00:32:39.765Z,99.26
2023-02-19T00:33:39.694Z,99.42
2023-02-19T00:34:39.633Z,99.52
2023-02-19T00:35:39.741Z,99.63
2023-02-19T00:36:39.640Z,99.73
2023-02-19T00:37:39.634Z,99.73
2023-02-19T00:38:39.692Z,99.73
2023-02-19T00:39:39.607Z,99.73
2023-02-19T00:40:39.572Z,99.73
2023-02-19T00:41:39.644Z,99.73
2023-02-19T00:42:39.562Z,99.73
2023-02-19T00:43:39.564Z,99.73
2023-02-19T00:44:39.551Z,99.42
2023-02-19T00:45:39.552Z,99.52
2023-02-19T00:46:39.638Z,99.52
2023-02-19T00:47:39.532Z,99.42
2023-02-19T00:48:39.576Z,99.32
2023-02-19T00:49:39.495Z,99.32
2023-02-19T00:50:39.392Z,99.26
2023-02-19T00:51:39.489Z,99.32
2023-02-19T00:52:39.570Z,99.32
2023-02-19T00:53:39.478Z,99.21
2023-02-19T00:54:39.500Z,99.32
2023-02-19T00:55:39.503Z,99.32
2023-02-19T00:56:39.435Z,99.42
2023-02-19T00:57:39.454Z,99.21
2023-02-19T00:58:39.536Z,99.32
2023-02-19T00:59:39.466Z,99.21
2023-02-19T01:00:39.414Z,99.21
2023-02-19T01:01:39.485Z,99.37
2023-02-19T01:02:39.387Z,99.42
2023-02-19T01:03:39.400Z,99.42
2023-02-19T01:04:39.553Z,99.52
2023-02-19T01:05:39.360Z,99.52
2023-02-19T01:06:39.218Z,99.63
2023-02-19T01:07:39.273Z,99.73
2023-02-19T01:08:39.120Z,99.73
2023-02-19T01:09:39.405Z,99.73
2023-02-19T01:10:39.336Z,99.73
2023-02-19T01:11:39.320Z,99.73
2023-02-19T01:12:39.292Z,99.73
2023-02-19T01:13:39.283Z,99.73
2023-02-19T01:14:39.170Z,99.73
2023-02-19T01:15:39.272Z,99.83
2023-02-19T01:16:39.296Z,99.83
2023-02-19T01:17:39.222Z,99.93
2023-02-19T01:18:39.208Z,99.99
2023-02-19T01:19:39.330Z,99.99
2023-02-19T01:20:39.333Z,99.99
2023-02-19T01:21:39.258Z,99.99
2023-02-19T01:22:39.092Z,99.99
2023-02-19T01:23:39.093Z,99.99
2023-02-19T01:24:39.120Z,99.99
2023-02-19T01:25:39.272Z,99.99
2023-02-19T01:26:39.244Z,99.99
2023-02-19T01:27:39.072Z,99.99
2023-02-19T01:28:38.993Z,99.99
2023-02-19T01:29:38.967Z,99.99
2023-02-19T01:30:38.961Z,99.99
2023-02-19T01:31:39.295Z,99.99
2023-02-19T01:32:39.032Z,99.99
2023-02-19T01:33:38.861Z,99.99
2023-02-19T01:34:39.028Z,99.99
2023-02-19T01:35:38.883Z,99.99
2023-02-19T01:36:39.177Z,99.99
2023-02-19T01:37:39.023Z,99.99
2023-02-19T01:38:39.031Z,99.99
2023-02-19T01:39:39.031Z,99.99
2023-02-19T01:40:39.044Z,99.99
2023-02-19T01:41:39.024Z,99.99
2023-02-19T01:42:39.023Z,99.99
2023-02-19T01:43:39.031Z,99.99
2023-02-19T01:44:39.028Z,99.99
2023-02-19T01:45:39.050Z,99.99
2023-02-19T01:46:39.007Z,99.99
2023-02-19T01:47:39.060Z,99.99
2023-02-19T01:48:38.947Z,99.99
2023-02-19T01:49:38.876Z,99.99
2023-02-19T01:50:38.876Z,99.99
2023-02-19T01:51:38.973Z,99.99
2023-02-19T01:52:38.874Z,99.99
2023-02-19T01:53:38.852Z,99.99
2023-02-19T01:54:38.833Z,99.99
2023-02-19T01:55:38.903Z,99.99
2023-02-19T01:56:38.830Z,99.99
2023-02-19T01:57:38.923Z,99.99
2023-02-19T01:58:38.868Z,99.99
2023-02-19T01:59:38.799Z,99.99
2023-02-19T02:00:38.752Z,99.99
2023-02-19T02:01:38.837Z,99.99
2023-02-19T02:02:38.869Z,99.99
2023-02-19T02:03:38.797Z,99.99
2023-02-19T02:04:38.880Z,99.99
2023-02-19T02:05:38.794Z,99.99
2023-02-19T02:06:38.787Z,99.99
2023-02-19T02:07:38.785Z,99.99
2023-02-19T02:08:38.560Z,99.99
2023-02-19T02:09:38.865Z,99.99
2023-02-19T02:10:38.711Z,99.99
2023-02-19T02:11:38.705Z,99.99
2023-02-19T02:12:38.706Z,99.99
2023-02-19T02:13:38.765Z,99.99
2023-02-19T02:14:38.696Z,99.99
2023-02-19T02:15:38.697Z,99.99
2023-02-19T02:16:38.692Z,99.99
2023-02-19T02:17:38.680Z,99.99
2023-02-19T02:18:38.477Z,99.99
2023-02-19T02:19:38.735Z,99.99
2023-02-19T02:20:38.631Z,99.99
2023-02-19T02:21:38.610Z,99.89
2023-02-19T02:22:38.602Z,99.79
2023-02-19T02:23:38.582Z,99.99
2023-02-19T02:24:38.571Z,99.99
2023-02-19T02:25:38.654Z,99.99
2023-02-19T02:26:38.567Z,99.99
2023-02-19T02:27:38.563Z,99.99
2023-02-19T02:28:38.562Z,99.99
2023-02-19T02:29:38.514Z,99.99
2023-02-19T02:30:38.665Z,99.99
2023-02-19T02:31:38.653Z,99.99
2023-02-19T02:32:38.518Z,99.89
2023-02-19T02:33:38.504Z,99.58
2023-02-19T02:34:38.330Z,99.48
2023-02-19T02:35:38.477Z,99.17
2023-02-19T02:36:38.556Z,99.07
2023-02-19T02:37:38.457Z,98.86
2023-02-19T02:38:38.458Z,98.86
2023-02-19T02:39:38.456Z,98.76
2023-02-19T02:40:38.543Z,98.55
2023-02-19T02:41:38.462Z,98.35
2023-02-19T02:42:38.221Z,98.35
2023-02-19T02:43:38.445Z,98.35
2023-02-19T02:44:38.430Z,98.04
2023-02-19T02:45:38.558Z,98.25
2023-02-19T02:46:38.493Z,98.35
2023-02-19T02:47:38.361Z,98.55
2023-02-19T02:48:38.400Z,98.55
2023-02-19T02:49:38.322Z,98.45
2023-02-19T02:50:38.158Z,98.35
2023-02-19T02:51:38.456Z,98.35
2023-02-19T02:52:38.170Z,98.25
2023-02-19T02:53:38.332Z,98.25
2023-02-19T02:54:38.318Z,98.35
2023-02-19T02:55:38.212Z,98.55
2023-02-19T02:56:38.277Z,98.66
2023-02-19T02:57:38.192Z,98.76
2023-02-19T02:58:38.191Z,98.76
2023-02-19T02:59:38.151Z,98.66
2023-02-19T03:00:38.168Z,98.86
2023-02-19T03:01:38.149Z,98.66
2023-02-19T03:02:38.117Z,98.45
2023-02-19T03:03:38.002Z,98.25
2023-02-19T03:04:38.113Z,98.25
2023-02-19T03:05:38.038Z,98.14
2023-02-19T03:06:38.081Z,98.35
2023-02-19T03:07:38.033Z,98.25
2023-02-19T03:08:38.247Z,98.25
2023-02-19T03:09:38.241Z,98.25
2023-02-19T03:10:38.168Z,98.14
2023-02-19T03:11:38.079Z,98.14
2023-02-19T03:12:38.147Z,97.94
2023-02-19T03:13:38.140Z,97.94
2023-02-19T03:14:37.899Z,98.04
2023-02-19T03:15:38.223Z,97.83
2023-02-19T03:16:37.977Z,97.63
2023-02-19T03:17:38.109Z,97.94
2023-02-19T03:18:38.076Z,98.04
2023-02-19T03:19:38.103Z,97.83
2023-02-19T03:20:38.079Z,97.83
2023-02-19T03:21:38.062Z,97.73
2023-02-19T03:22:38.043Z,97.63
2023-02-19T03:23:38.102Z,97.63
2023-02-19T03:24:37.988Z,97.83
2023-02-19T03:25:38.075Z,97.73
2023-02-19T03:26:38.025Z,97.83
2023-02-19T03:27:38.016Z,97.94
2023-02-19T03:28:38.015Z,97.83
2023-02-19T03:29:38.089Z,97.78
2023-02-19T03:30:37.851Z,97.88
2023-02-19T03:31:38.018Z,97.83
2023-02-19T03:32:37.970Z,97.88
2023-02-19T03:33:37.892Z,97.73
2023-02-19T03:34:37.918Z,97.88
2023-02-19T03:35:37.973Z,97.99
2023-02-19T03:36:37.892Z,97.94
2023-02-19T03:37:37.884Z,97.94
2023-02-19T03:38:37.890Z,97.88
2023-02-19T03:39:37.887Z,97.78
2023-02-19T03:40:37.955Z,97.73
2023-02-19T03:41:37.852Z,97.83
2023-02-19T03:42:37.841Z,97.78
2023-02-19T03:43:37.822Z,97.78
2023-02-19T03:44:37.796Z,97.78
2023-02-19T03:45:37.905Z,97.83
2023-02-19T03:46:37.789Z,97.88
2023-02-19T03:47:37.780Z,97.88
2023-02-19T03:48:37.700Z,97.83
2023-02-19T03:49:37.779Z,97.83
2023-02-19T03:50:37.775Z,97.83
2023-02-19T03:51:37.830Z,97.83
2023-02-19T03:52:37.628Z,97.83
2023-02-19T03:53:37.713Z,97.83
2023-02-19T03:54:37.513Z,97.63
2023-02-19T03:55:37.753Z,97.88
2023-02-19T03:56:37.813Z,97.73
2023-02-19T03:57:37.603Z,97.53
2023-02-19T03:58:37.581Z,97.57
2023-02-19T03:59:37.493Z,97.47
2023-02-19T04:00:37.572Z,97.42
2023-02-19T04:01:37.738Z,97.47
2023-02-19T04:02:37.527Z,97.27
2023-02-19T04:03:37.446Z,97.12
2023-02-19T04:04:37.706Z,97.37
2023-02-19T04:05:37.440Z,97.42
2023-02-19T04:06:37.390Z,97.16
2023-02-19T04:07:37.647Z,96.95
2023-02-19T04:08:37.625Z,97.16
2023-02-19T04:09:37.554Z,97.37
2023-02-19T04:10:37.612Z,97.27
2023-02-19T04:11:37.601Z,97.37
2023-02-19T04:12:37.599Z,97.47
2023-02-19T04:13:37.529Z,97.57
2023-02-19T04:14:37.347Z,97.57
2023-02-19T04:15:37.439Z,97.78
2023-02-19T04:16:37.596Z,97.88
2023-02-19T04:17:37.614Z,97.99
2023-02-19T04:18:37.608Z,97.99
2023-02-19T04:19:37.521Z,98.08
2023-02-19T04:20:37.519Z,98.19
2023-02-19T04:21:37.494Z,98.19
2023-02-19T04:22:37.568Z,98.19
2023-02-19T04:23:37.505Z,98.29
2023-02-19T04:24:37.416Z,98.39
2023-02-19T04:25:37.425Z,98.39
2023-02-19T04:26:37.419Z,98.39
2023-02-19T04:27:37.412Z,98.29
2023-02-19T04:28:37.412Z,98.19
2023-02-19T04:29:39.167Z,98.19
2023-02-19T04:30:37.313Z,98.19
2023-02-19T04:31:37.383Z,98.08
2023-02-19T04:32:37.355Z,98.08
2023-02-19T04:33:37.383Z,98.08
2023-02-19T04:34:37.393Z,97.78
2023-02-19T04:35:37.226Z,97.41
2023-02-19T04:36:37.203Z,97.47
2023-02-19T04:37:37.349Z,97.67
2023-02-19T04:38:37.334Z,97.99
2023-02-19T04:39:37.386Z,98.08
2023-02-19T04:40:37.309Z,97.78
2023-02-19T04:41:37.295Z,97.88
2023-02-19T04:42:37.282Z,97.88
2023-02-19T04:43:37.273Z,97.78
2023-02-19T04:44:37.333Z,97.47
2023-02-19T04:45:37.249Z,97.27
2023-02-19T04:46:37.288Z,96.95
2023-02-19T04:47:36.990Z,96.75
2023-02-19T04:48:37.096Z,96.95
2023-02-19T04:49:37.225Z,97.06
2023-02-19T04:50:37.216Z,97.06
2023-02-19T04:51:37.210Z,96.85
2023-02-19T04:52:37.056Z,96.80
2023-02-19T04:53:37.051Z,96.69
2023-02-19T04:54:37.051Z,96.80
2023-02-19T04:55:37.074Z,96.80
2023-02-19T04:56:37.079Z,96.80
2023-02-19T04:57:37.081Z,96.69
2023-02-19T04:58:37.094Z,96.39
2023-02-19T04:59:37.046Z,96.39
2023-02-19T05:00:37.045Z,96.48
2023-02-19T05:01:37.240Z,96.59
2023-02-19T05:02:37.148Z,96.80
2023-02-19T05:03:36.960Z,96.80
2023-02-19T05:04:37.112Z,96.80
2023-02-19T05:05:37.042Z,96.90
2023-02-19T05:06:37.012Z,97.00
2023-02-19T05:07:36.985Z,97.10
2023-02-19T05:08:37.048Z,97.00
2023-02-19T05:09:36.966Z,97.00
2023-02-19T05:10:36.975Z,97.10
2023-02-19T05:11:37.060Z,97.20
2023-02-19T05:12:37.058Z,97.00
2023-02-19T05:13:36.967Z,97.20
2023-02-19T05:14:37.028Z,97.10
2023-02-19T05:15:36.797Z,97.20
2023-02-19T05:16:36.714Z,97.20
2023-02-19T05:17:36.787Z,96.90
2023-02-19T05:18:36.986Z,96.59
2023-02-19T05:19:36.887Z,96.28
2023-02-19T05:20:36.735Z,96.48
2023-02-19T05:21:36.695Z,96.90
2023-02-19T05:22:36.942Z,96.69
2023-02-19T05:23:36.858Z,96.69
2023-02-19T05:24:36.858Z,96.59
2023-02-19T05:25:36.709Z,96.59
2023-02-19T05:26:36.808Z,96.80
2023-02-19T05:27:36.824Z,96.28
2023-02-19T05:28:36.803Z,96.18
2023-02-19T05:29:36.667Z,96.28
2023-02-19T05:30:36.859Z,95.46
2023-02-19T05:31:36.851Z,95.56
2023-02-19T05:32:36.692Z,95.87
2023-02-19T05:33:36.961Z,95.77
2023-02-19T05:34:36.570Z,95.67
2023-02-19T05:35:36.547Z,95.15
2023-02-19T05:36:36.532Z,95.15
2023-02-19T05:37:36.564Z,95.30
2023-02-19T05:38:36.718Z,95.40
2023-02-19T05:39:36.516Z,95.15
2023-02-19T05:40:36.629Z,95.30
2023-02-19T05:41:36.634Z,95.20
2023-02-19T05:42:36.762Z,95.30
2023-02-19T05:43:36.753Z,95.56
2023-02-19T05:44:36.619Z,95.40
2023-02-19T05:45:36.732Z,95.61
2023-02-19T05:46:36.729Z,95.30
2023-02-19T05:47:36.618Z,95.40
2023-02-19T05:48:36.545Z,95.50
2023-02-19T05:49:36.634Z,95.50
2023-02-19T05:50:38.696Z,95.56
2023-02-19T05:51:36.590Z,95.61
2023-02-19T05:52:36.399Z,95.40
2023-02-19T05:53:36.499Z,95.30
2023-02-19T05:54:36.487Z,95.40
2023-02-19T05:55:36.540Z,95.81
2023-02-19T05:56:36.362Z,95.92
2023-02-19T05:57:36.568Z,95.71
2023-02-19T05:58:36.544Z,95.50
2023-02-19T05:59:36.443Z,95.40
2023-02-19T06:00:36.428Z,95.50
2023-02-19T06:01:36.488Z,95.92
2023-02-19T06:02:36.549Z,95.71
2023-02-19T06:03:36.368Z,95.40
2023-02-19T06:04:36.247Z,96.02
2023-02-19T06:05:36.234Z,96.33
2023-02-19T06:06:36.183Z,96.22
2023-02-19T06:07:36.311Z,96.22
2023-02-19T06:08:36.273Z,96.33
2023-02-19T06:09:36.251Z,96.64
2023-02-19T06:10:36.379Z,96.73
2023-02-19T06:11:36.421Z,96.64
2023-02-19T06:12:36.238Z,96.64
2023-02-19T06:13:36.313Z,96.84
2023-02-19T06:14:36.161Z,96.73
2023-02-19T06:15:36.318Z,96.64
2023-02-19T06:16:36.110Z,96.73
2023-02-19T06:17:36.280Z,96.43
2023-02-19T06:18:36.113Z,96.43
2023-02-19T06:19:36.256Z,96.43
2023-02-19T06:20:36.240Z,96.12
2023-02-19T06:21:36.227Z,96.12
2023-02-19T06:22:36.299Z,96.22
2023-02-19T06:23:36.185Z,95.96
2023-02-19T06:24:36.311Z,95.81
2023-02-19T06:25:36.235Z,95.81
2023-02-19T06:26:36.303Z,96.06
2023-02-19T06:27:36.189Z,96.02
2023-02-19T06:28:36.195Z,95.65
2023-02-19T06:29:36.190Z,95.65
2023-02-19T06:30:36.171Z,95.71
2023-02-19T06:31:36.322Z,95.81
2023-02-19T06:32:36.162Z,95.61
2023-02-19T06:33:36.163Z,95.71
2023-02-19T06:34:36.006Z,95.81
2023-02-19T06:35:36.016Z,95.81
2023-02-19T06:36:35.949Z,95.92
2023-02-19T06:37:36.033Z,96.02
2023-02-19T06:38:36.034Z,95.81
2023-02-19T06:39:36.026Z,95.81
2023-02-19T06:40:36.028Z,96.02
2023-02-19T06:41:36.028Z,95.92
2023-02-19T06:42:35.889Z,96.02
2023-02-19T06:43:36.041Z,95.09
2023-02-19T06:44:36.051Z,94.52
2023-02-19T06:45:35.956Z,94.11
2023-02-19T06:46:35.952Z,94.21
2023-02-19T06:47:36.074Z,94.56
2023-02-19T06:48:35.933Z,94.56
2023-02-19T06:49:35.947Z,94.56
2023-02-19T06:50:36.080Z,94.87
2023-02-19T06:51:35.962Z,95.12
2023-02-19T06:52:35.809Z,95.33
2023-02-19T06:53:35.908Z,94.40
2023-02-19T06:54:35.992Z,93.41
2023-02-19T06:55:35.844Z,93.83
2023-02-19T06:56:35.848Z,94.28
2023-02-19T06:57:35.832Z,94.28
2023-02-19T06:58:35.813Z,94.38
2023-02-19T06:59:35.935Z,94.70
2023-02-19T07:00:35.839Z,94.80
2023-02-19T07:01:35.855Z,94.84
2023-02-19T07:02:35.849Z,94.32
2023-02-19T07:03:35.908Z,94.53
2023-02-19T07:04:35.786Z,94.84
2023-02-19T07:05:35.775Z,94.84
2023-02-19T07:06:35.765Z,94.95
2023-02-19T07:07:35.776Z,95.05
2023-02-19T07:08:35.892Z,95.25
2023-02-19T07:09:35.889Z,95.25
2023-02-19T07:10:35.578Z,95.05
2023-02-19T07:11:35.571Z,94.74
2023-02-19T07:12:35.873Z,94.64
2023-02-19T07:13:35.675Z,94.32
2023-02-19T07:14:35.514Z,94.47
2023-02-19T07:15:35.676Z,94.47
2023-02-19T07:16:35.548Z,94.27
2023-02-19T07:17:35.525Z,94.68
2023-02-19T07:18:35.584Z,94.78
2023-02-19T07:19:35.545Z,94.89
2023-02-19T07:20:35.714Z,94.78
2023-02-19T07:21:35.467Z,94.99
2023-02-19T07:22:35.548Z,95.09
2023-02-19T07:23:35.442Z,94.89
2023-02-19T07:24:35.612Z,95.30
2023-02-19T07:25:35.814Z,95.30
2023-02-19T07:26:35.602Z,95.30
2023-02-19T07:27:35.586Z,95.30
2023-02-19T07:28:35.572Z,95.24
2023-02-19T07:29:35.630Z,95.30
2023-02-19T07:30:35.713Z,95.20
2023-02-19T07:31:35.671Z,95.20
2023-02-19T07:32:35.338Z,95.09
2023-02-19T07:33:35.541Z,95.09
2023-02-19T07:34:35.528Z,94.89
2023-02-19T07:35:35.457Z,94.78
2023-02-19T07:36:35.534Z,94.99
2023-02-19T07:37:35.457Z,94.68
2023-02-19T07:38:35.459Z,94.68
2023-02-19T07:39:35.471Z,94.68
2023-02-19T07:40:35.483Z,94.78
2023-02-19T07:41:35.390Z,94.78
2023-02-19T07:42:35.540Z,94.89
2023-02-19T07:43:35.319Z,94.57
2023-02-19T07:44:35.408Z,94.78
2023-02-19T07:45:35.404Z,94.57
2023-02-19T07:46:35.303Z,94.82
2023-02-19T07:47:35.305Z,94.99
2023-02-19T07:48:35.258Z,94.93
2023-02-19T07:49:35.280Z,95.03
2023-02-19T07:50:35.367Z,95.03
2023-02-19T07:51:35.325Z,94.82
2023-02-19T07:52:35.175Z,94.82
2023-02-19T07:53:35.282Z,95.03
2023-02-19T07:54:35.138Z,95.24
2023-02-19T07:55:35.275Z,95.03
2023-02-19T07:56:35.123Z,94.82
2023-02-19T07:57:35.406Z,94.93
2023-02-19T07:58:35.281Z,94.68
2023-02-19T07:59:35.261Z,94.57
2023-02-19T08:00:35.255Z,94.57
2023-02-19T08:01:35.215Z,94.47
2023-02-19T08:02:35.183Z,94.47
2023-02-19T08:03:35.336Z,94.17
2023-02-19T08:04:35.234Z,93.85
2023-02-19T08:05:35.454Z,93.34
2023-02-19T08:06:35.196Z,93.24
2023-02-19T08:07:35.204Z,93.09
2023-02-19T08:08:35.189Z,93.19
2023-02-19T08:09:35.477Z,93.30
2023-02-19T08:10:35.208Z,92.68
2023-02-19T08:11:35.139Z,91.85
2023-02-19T08:12:35.124Z,91.13
2023-02-19T08:13:35.200Z,91.03
2023-02-19T08:14:35.289Z,90.92
2023-02-19T08:15:35.125Z,90.82
2023-02-19T08:16:43.020Z,90.20
2023-02-19T08:17:35.086Z,90.31
2023-02-19T08:18:35.081Z,90.20
2023-02-19T08:19:35.072Z,90.26
2023-02-19T08:20:35.123Z,89.54
2023-02-19T08:21:35.102Z,89.13
2023-02-19T08:22:34.910Z,88.47
2023-02-19T08:23:35.123Z,88.02
2023-02-19T08:24:35.111Z,87.30
2023-02-19T08:25:35.018Z,87.40
2023-02-19T08:26:35.010Z,87.19
2023-02-19T08:27:35.011Z,87.19
2023-02-19T08:28:34.993Z,86.99
2023-02-19T08:29:35.142Z,86.37
2023-02-19T08:30:35.318Z,86.43
2023-02-19T08:31:35.114Z,86.08
2023-02-19T08:32:34.988Z,85.88
2023-02-19T08:33:35.049Z,85.68
2023-02-19T08:34:34.859Z,85.61
2023-02-19T08:35:35.107Z,85.92
2023-02-19T08:36:34.875Z,85.71
2023-02-19T08:37:35.043Z,85.61
2023-02-19T08:38:34.829Z,84.99
2023-02-19T08:39:34.990Z,84.99
2023-02-19T08:40:34.832Z,85.41
2023-02-19T08:41:34.942Z,84.54
2023-02-19T08:42:34.914Z,85.06
2023-02-19T08:43:34.882Z,84.95
2023-02-19T08:44:34.863Z,85.36
2023-02-19T08:45:34.850Z,85.20
2023-02-19T08:46:34.856Z,85.51
2023-02-19T08:47:34.984Z,85.71
2023-02-19T08:48:34.819Z,86.33
2023-02-19T08:49:34.969Z,85.41
2023-02-19T08:50:34.792Z,85.61
2023-02-19T08:51:34.685Z,85.86
2023-02-19T08:52:34.644Z,85.86
2023-02-19T08:53:34.568Z,86.02
2023-02-19T08:54:36.231Z,85.82
2023-02-19T08:55:34.599Z,86.02
2023-02-19T08:56:34.695Z,85.96
2023-02-19T08:57:34.507Z,86.68
2023-02-19T08:58:34.598Z,87.19
2023-02-19T08:59:34.657Z,87.19
2023-02-19T09:00:34.473Z,87.40
2023-02-19T09:01:34.556Z,87.40
2023-02-19T09:02:34.473Z,87.30
2023-02-19T09:03:34.431Z,86.93
2023-02-19T09:04:34.718Z,87.03
2023-02-19T09:05:34.555Z,87.44
2023-02-19T09:06:34.567Z,87.75
2023-02-19T09:07:34.572Z,88.26
2023-02-19T09:08:34.574Z,87.44
2023-02-19T09:09:34.643Z,87.34
2023-02-19T09:10:34.564Z,87.44
2023-02-19T09:11:34.561Z,87.85
2023-02-19T09:12:34.550Z,88.17
2023-02-19T09:13:34.537Z,88.57
2023-02-19T09:14:34.562Z,88.68
2023-02-19T09:15:34.532Z,88.17
2023-02-19T09:16:34.505Z,88.17
2023-02-19T09:17:34.559Z,88.26
2023-02-19T09:18:34.525Z,88.06
2023-02-19T09:19:34.423Z,86.00
2023-02-19T09:20:34.485Z,85.79
2023-02-19T09:21:34.392Z,85.07
2023-02-19T09:22:34.529Z,85.89
2023-02-19T09:23:34.434Z,85.69
2023-02-19T09:24:34.398Z,86.41
2023-02-19T09:25:34.424Z,87.27
2023-02-19T09:26:34.964Z,86.35
2023-02-19T09:27:34.366Z,86.15
2023-02-19T09:28:34.347Z,85.11
2023-02-19T09:29:34.324Z,85.94
2023-02-19T09:30:34.345Z,85.77
2023-02-19T09:31:34.443Z,86.70
2023-02-19T09:32:34.292Z,86.94
2023-02-19T09:33:34.291Z,87.66
2023-02-19T09:34:34.276Z,87.98
2023-02-19T09:35:34.385Z,88.64
2023-02-19T09:36:34.325Z,89.11
2023-02-19T09:37:34.296Z,89.42
2023-02-19T09:38:34.283Z,89.83
2023-02-19T09:39:34.261Z,89.28
2023-02-19T09:40:34.247Z,88.56
2023-02-19T09:41:34.235Z,88.56
2023-02-19T09:42:34.221Z,87.79
2023-02-19T09:43:34.356Z,86.87
2023-02-19T09:44:34.179Z,86.15
2023-02-19T09:45:34.143Z,86.35
2023-02-19T09:46:34.154Z,85.38
2023-02-19T09:47:34.274Z,84.97
2023-02-19T09:48:34.262Z,83.22
2023-02-19T09:49:34.229Z,83.84
2023-02-19T09:50:34.207Z,83.59
2023-02-19T09:51:34.180Z,83.28
2023-02-19T09:52:34.135Z,83.90
2023-02-19T09:53:34.261Z,83.76
2023-02-19T09:54:34.123Z,82.11
2023-02-19T09:55:34.158Z,82.63
2023-02-19T09:56:34.130Z,81.70
2023-02-19T09:57:34.105Z,81.81
2023-02-19T09:58:34.084Z,81.19
2023-02-19T09:59:34.138Z,81.29
2023-02-19T10:00:34.141Z,80.88
2023-02-19T10:01:34.111Z,81.97
2023-02-19T10:02:34.188Z,81.97
2023-02-19T10:03:33.848Z,80.53
2023-02-19T10:04:34.085Z,79.67
2023-02-19T10:05:34.074Z,79.57
2023-02-19T10:06:34.096Z,80.05
2023-02-19T10:07:34.016Z,79.49
2023-02-19T10:08:34.027Z,78.98
2023-02-19T10:09:34.045Z,77.40
2023-02-19T10:10:34.069Z,77.20
2023-02-19T10:11:33.950Z,76.96
2023-02-19T10:12:33.930Z,76.65
2023-02-19T10:13:33.786Z,76.65
2023-02-19T10:14:33.932Z,76.34
2023-02-19T10:15:33.921Z,76.28
2023-02-19T10:16:33.905Z,76.07
2023-02-19T10:17:33.909Z,77.30
2023-02-19T10:18:33.889Z,77.00
2023-02-19T10:19:33.884Z,75.15
2023-02-19T10:20:33.850Z,76.25
2023-02-19T10:21:33.697Z,78.20
2023-02-19T10:22:33.838Z,78.09
2023-02-19T10:23:33.802Z,77.78
2023-02-19T10:24:33.773Z,77.78
2023-02-19T10:25:33.908Z,77.55
2023-02-19T10:26:33.721Z,77.55
2023-02-19T10:27:33.695Z,78.23
2023-02-19T10:28:33.717Z,76.17
2023-02-19T10:29:33.694Z,76.38
2023-02-19T10:30:33.911Z,76.79
2023-02-19T10:31:33.818Z,76.86
2023-02-19T10:32:33.706Z,76.45
2023-02-19T10:33:33.520Z,75.62
2023-02-19T10:34:33.671Z,76.34
2023-02-19T10:35:33.660Z,76.04
2023-02-19T10:36:33.824Z,76.75
2023-02-19T10:37:33.644Z,77.10
2023-02-19T10:38:33.641Z,77.26
2023-02-19T10:39:33.645Z,76.89
2023-02-19T10:40:33.642Z,76.24
2023-02-19T10:41:33.632Z,76.14
2023-02-19T10:42:33.477Z,76.34
2023-02-19T10:43:33.634Z,75.11
2023-02-19T10:44:33.643Z,76.14
2023-02-19T10:45:33.540Z,76.04
2023-02-19T10:46:33.712Z,76.41
2023-02-19T10:47:33.580Z,76.31
2023-02-19T10:48:33.377Z,76.31
2023-02-19T10:49:33.560Z,75.11
2023-02-19T10:50:33.574Z,73.85
2023-02-19T10:51:33.574Z,72.82
2023-02-19T10:52:33.600Z,72.65
2023-02-19T10:53:33.525Z,72.55
2023-02-19T10:54:33.545Z,71.62
2023-02-19T10:55:33.483Z,71.22
2023-02-19T10:56:33.487Z,71.22
2023-02-19T10:57:33.565Z,71.25
2023-02-19T10:58:33.489Z,71.04
2023-02-19T10:59:33.480Z,71.36
2023-02-19T11:00:33.474Z,72.34
2023-02-19T11:01:33.524Z,72.07
2023-02-19T11:02:33.414Z,71.15
2023-02-19T11:03:33.471Z,69.92
2023-02-19T11:04:33.473Z,70.57
2023-02-19T11:05:33.407Z,70.67
2023-02-19T11:06:35.019Z,71.22
2023-02-19T11:07:33.416Z,69.89
2023-02-19T11:08:33.409Z,71.66
2023-02-19T11:09:33.402Z,72.68
2023-02-19T11:10:33.324Z,72.86
2023-02-19T11:11:33.320Z,72.75
2023-02-19T11:12:33.324Z,72.44
2023-02-19T11:13:33.311Z,72.20
2023-02-19T11:14:33.382Z,72.72
2023-02-19T11:15:33.295Z,72.07
2023-02-19T11:16:33.383Z,70.94
2023-02-19T11:17:33.314Z,69.99
2023-02-19T11:18:33.241Z,69.79
2023-02-19T11:19:33.228Z,69.68
2023-02-19T11:20:33.143Z,68.84
2023-02-19T11:21:33.222Z,68.90
2023-02-19T11:22:33.244Z,68.05
2023-02-19T11:23:33.307Z,67.00
2023-02-19T11:24:33.203Z,63.18
2023-02-19T11:25:33.048Z,59.91
2023-02-19T11:26:33.266Z,57.81
2023-02-19T11:27:32.990Z,56.77
2023-02-19T11:28:33.222Z,55.47
2023-02-19T11:29:33.188Z,53.55
2023-02-19T11:30:35.896Z,54.39
2023-02-19T11:31:33.108Z,54.21
2023-02-19T11:32:33.109Z,54.51
2023-02-19T11:33:33.163Z,55.22
2023-02-19T11:34:33.115Z,53.98
2023-02-19T11:35:33.074Z,53.80
2023-02-19T11:36:33.100Z,55.25
2023-02-19T11:37:33.144Z,54.97
2023-02-19T11:38:33.094Z,54.69
2023-02-19T11:39:33.044Z,56.55
2023-02-19T11:40:33.078Z,57.18
2023-02-19T11:41:33.120Z,56.14
2023-02-19T11:42:33.060Z,55.83
2023-02-19T11:43:32.997Z,55.89
2023-02-19T11:44:32.946Z,57.62
2023-02-19T11:45:33.002Z,56.29
2023-02-19T11:46:33.071Z,54.61
2023-02-19T11:47:32.928Z,52.92
2023-02-19T11:48:32.893Z,51.57
2023-02-19T11:49:32.922Z,50.71
2023-02-19T11:50:32.982Z,52.18
2023-02-19T11:51:32.935Z,51.12
2023-02-19T11:52:32.900Z,51.09
2023-02-19T11:53:32.821Z,54.31
2023-02-19T11:54:32.923Z,55.41
2023-02-19T11:55:32.953Z,55.94
2023-02-19T11:56:32.910Z,57.47
2023-02-19T11:57:32.865Z,58.05
2023-02-19T11:58:32.902Z,57.31
2023-02-19T11:59:32.946Z,55.35
2023-02-19T12:00:32.749Z,56.27
2023-02-19T12:01:32.851Z,55.18
2023-02-19T12:02:32.855Z,56.20
2023-02-19T12:03:32.917Z,56.50
2023-02-19T12:04:32.851Z,54.44
2023-02-19T12:05:32.865Z,54.79
2023-02-19T12:06:32.614Z,54.26
2023-02-19T12:07:32.735Z,53.63
2023-02-19T12:08:32.871Z,51.62
2023-02-19T12:09:32.768Z,51.72
2023-02-19T12:10:32.728Z,51.57
2023-02-19T12:11:32.694Z,51.21
2023-02-19T12:12:32.741Z,52.15
2023-02-19T12:13:32.714Z,50.08
2023-02-19T12:14:32.785Z,50.79
2023-02-19T12:15:32.704Z,51.67
2023-02-19T12:16:32.772Z,50.81
2023-02-19T12:17:32.646Z,50.35
2023-02-19T12:18:33.940Z,51.29
2023-02-19T12:19:32.667Z,52.08
2023-02-19T12:20:32.754Z,53.32
2023-02-19T12:21:32.655Z,53.96
2023-02-19T12:22:32.489Z,54.97
2023-02-19T12:23:32.631Z,55.71
2023-02-19T12:24:32.691Z,56.27
2023-02-19T12:25:34.546Z,56.43
2023-02-19T12:26:32.597Z,59.23
2023-02-19T12:27:32.566Z,60.49
2023-02-19T12:28:32.542Z,60.90
2023-02-19T12:29:32.526Z,61.10
2023-02-19T12:30:32.618Z,61.49
2023-02-19T12:31:33.145Z,61.18
2023-02-19T12:32:32.529Z,59.00
2023-02-19T12:33:32.513Z,59.92
2023-02-19T12:34:32.521Z,59.11
2023-02-19T12:35:32.278Z,59.00
2023-02-19T12:36:32.462Z,58.80
2023-02-19T12:37:32.359Z,57.98
2023-02-19T12:38:32.428Z,57.91
2023-02-19T12:39:32.480Z,57.20
2023-02-19T12:40:32.470Z,57.20
2023-02-19T12:41:32.221Z,57.70
2023-02-19T12:42:32.254Z,57.91
2023-02-19T12:43:32.419Z,59.16
2023-02-19T12:44:32.261Z,59.67
2023-02-19T12:45:32.395Z,61.34
2023-02-19T12:46:32.405Z,61.65
2023-02-19T12:47:32.408Z,61.13
2023-02-19T12:48:32.465Z,60.52
2023-02-19T12:49:32.345Z,60.11
2023-02-19T12:50:32.319Z,60.90
2023-02-19T12:51:32.308Z,59.67
2023-02-19T12:52:32.439Z,59.98